createdAt,value
2023-02-24T00:00:52.269Z,23.05
2023-02-24T00:03:24.900Z,21.80
2023-02-24T00:05:59.567Z,23.10
2023-02-24T00:08:32.363Z,21.73
2023-02-24T00:11:13.601Z,22.67
2023-02-24T00:13:47.463Z,22.65
2023-02-24T00:16:21.025Z,22.58
2023-02-24T00:18:53.993Z,23.13
2023-02-24T00:21:26.996Z,23.52
2023-02-24T00:24:02.370Z,22.70
2023-02-24T00:26:35.143Z,22.05
2023-02-24T00:29:11.394Z,22.98
2023-02-24T00:31:44.301Z,21.23
2023-02-24T00:34:16.974Z,21.77
2023-02-24T00:36:50.042Z,22.85
2023-02-24T00:39:30.860Z,23.30
2023-02-24T00:42:06.156Z,21.63
2023-02-24T00:44:41.690Z,21.48
2023-02-24T00:47:18.714Z,22.10
2023-02-24T00:49:51.475Z,20.85
2023-02-24T00:55:01.077Z,21.33
2023-02-24T00:57:35.777Z,22.58
2023-02-24T01:02:49.699Z,20.55
2023-02-24T01:05:22.466Z,21.23
2023-02-24T01:07:55.099Z,21.60
2023-02-24T01:10:28.694Z,22.42
2023-02-24T01:13:01.324Z,20.35
2023-02-24T01:15:34.028Z,21.92
2023-02-24T01:18:06.684Z,23.08
2023-02-24T01:20:39.260Z,22.23
2023-02-24T01:23:12.212Z,22.20
2023-02-24T01:25:48.193Z,23.15
2023-02-24T01:28:20.888Z,20.52
2023-02-24T01:30:54.520Z,23.00
2023-02-24T01:33:34.190Z,21.15
2023-02-24T01:36:11.777Z,22.90
2023-02-24T01:38:45.364Z,21.75
2023-02-24T01:41:33.266Z,21.33
2023-02-24T01:44:33.068Z,22.58
2023-02-24T01:47:05.620Z,22.23
2023-02-24T01:49:50.203Z,22.38
2023-02-24T01:52:26.497Z,22.15
2023-02-24T01:55:14.092Z,20.77
2023-02-24T01:57:49.181Z,22.48
2023-02-24T02:00:51.518Z,21.10
2023-02-24T02:03:29.955Z,20.73
2023-02-24T02:06:09.211Z,20.48
2023-02-24T02:08:43.673Z,21.45
2023-02-24T02:11:21.296Z,19.88
2023-02-24T02:13:54.428Z,21.67
2023-02-24T02:16:36.574Z,20.27
2023-02-24T02:19:40.447Z,20.60
2023-02-24T02:22:40.576Z,21.15
2023-02-24T02:25:47.114Z,19.13
2023-02-24T02:28:48.393Z,19.20
2023-02-24T02:31:36.198Z,19.83
2023-02-24T02:34:48.006Z,19.67
2023-02-24T02:37:41.441Z,17.80
2023-02-24T02:40:26.433Z,18.95
2023-02-24T02:43:26.149Z,17.70
2023-02-24T02:45:58.772Z,17.73
2023-02-24T02:48:44.002Z,17.70
2023-02-24T02:51:33.650Z,17.30
2023-02-24T02:54:17.781Z,18.17
2023-02-24T02:57:09.893Z,16.33
2023-02-24T02:59:52.101Z,16.73
2023-02-24T03:02:30.109Z,17.20
2023-02-24T03:05:09.584Z,18.17
2023-02-24T03:07:47.029Z,17.73
2023-02-24T03:10:28.003Z,17.60
2023-02-24T03:13:05.247Z,16.63
2023-02-24T03:15:42.592Z,18.17
2023-02-24T03:18:29.230Z,17.75
2023-02-24T03:21:08.415Z,18.38
2023-02-24T03:23:46.275Z,17.30
2023-02-24T03:26:41.659Z,17.45
2023-02-24T03:29:30.743Z,18.42
2023-02-24T03:32:09.611Z,17.55
2023-02-24T03:34:57.226Z,16.20
2023-02-24T03:37:31.585Z,16.90
2023-02-24T03:40:12.118Z,18.50
2023-02-24T03:42:52.949Z,19.67
2023-02-24T03:45:28.123Z,19.25
2023-02-24T03:48:03.580Z,19.02
2023-02-24T03:50:39.136Z,19.63
2023-02-24T03:56:21.353Z,18.70
2023-02-24T03:59:18.793Z,19.63
2023-02-24T04:02:36.256Z,19.33
2023-02-24T04:05:31.566Z,19.48
2023-02-24T04:08:29.671Z,19.30
2023-02-24T04:11:54.627Z,19.38
2023-02-24T04:14:43.603Z,18.23
2023-02-24T04:17:51.565Z,17.58
2023-02-24T04:20:44.233Z,17.45
2023-02-24T04:23:33.577Z,17.90
2023-02-24T04:26:36.583Z,19.42
2023-02-24T04:29:29.732Z,18.65
2023-02-24T04:32:14.254Z,19.30
2023-02-24T04:34:59.955Z,18.00
2023-02-24T04:37:40.609Z,19.10
2023-02-24T04:40:30.162Z,17.88
2023-02-24T04:43:04.375Z,18.42
2023-02-24T04:45:40.394Z,17.83
2023-02-24T04:48:13.372Z,18.38
2023-02-24T04:50:46.599Z,17.27
2023-02-24T04:53:19.372Z,17.73
2023-02-24T04:55:51.980Z,16.35
2023-02-24T04:58:29.557Z,17.33
2023-02-24T05:01:09.321Z,17.17
2023-02-24T05:03:45.410Z,16.45
2023-02-24T05:06:18.693Z,18.13
2023-02-24T05:08:52.723Z,17.80
2023-02-24T05:11:25.488Z,17.52
2023-02-24T05:13:58.221Z,17.65
2023-02-24T05:16:31.225Z,18.45
2023-02-24T05:19:22.355Z,17.80
2023-02-24T05:21:54.954Z,17.65
2023-02-24T05:24:29.793Z,17.77
2023-02-24T05:27:04.065Z,17.50
2023-02-24T05:29:38.091Z,17.27
2023-02-24T05:32:10.898Z,16.98
2023-02-24T05:34:43.550Z,17.13
2023-02-24T05:37:16.940Z,17.77
2023-02-24T05:39:49.534Z,17.38
2023-02-24T05:42:22.127Z,17.10
2023-02-24T05:44:54.959Z,17.45
2023-02-24T05:47:27.948Z,16.80
2023-02-24T05:50:00.543Z,15.75
2023-02-24T05:53:00.578Z,16.75
2023-02-24T05:55:36.749Z,16.00
2023-02-24T05:58:09.375Z,15.73
2023-02-24T06:00:46.142Z,17.95
2023-02-24T06:03:26.729Z,17.10
2023-02-24T06:05:59.574Z,17.38
2023-02-24T06:08:42.679Z,16.27
2023-02-24T06:11:17.055Z,15.90
2023-02-24T06:13:49.582Z,17.38
2023-02-24T06:16:22.533Z,17.77
2023-02-24T06:18:56.872Z,16.35
2023-02-24T06:21:30.367Z,16.77
2023-02-24T06:24:03.064Z,18.30
2023-02-24T06:26:37.095Z,18.15
2023-02-24T06:29:17.591Z,18.08
2023-02-24T06:31:52.575Z,18.02
2023-02-24T06:34:26.448Z,18.52
2023-02-24T06:36:59.067Z,18.73
2023-02-24T06:39:36.792Z,18.52
2023-02-24T06:42:11.192Z,18.15
2023-02-24T06:44:43.792Z,17.83
2023-02-24T06:47:36.454Z,18.00
2023-02-24T06:50:11.133Z,17.35
2023-02-24T06:52:44.097Z,18.70
2023-02-24T06:55:26.497Z,18.23
2023-02-24T06:58:04.905Z,18.23
2023-02-24T07:00:38.699Z,18.17
2023-02-24T07:03:17.129Z,19.92
2023-02-24T07:05:54.587Z,18.70
2023-02-24T07:08:27.688Z,19.83
2023-02-24T07:11:16.636Z,20.55
2023-02-24T07:14:14.323Z,20.45
2023-02-24T07:20:40.518Z,21.58
2023-02-24T07:23:52.731Z,23.88
2023-02-24T07:26:18.883Z,22.38
2023-02-24T07:28:55.253Z,22.88
2023-02-24T07:31:28.045Z,21.42
2023-02-24T07:34:02.390Z,22.92
2023-02-24T07:36:49.456Z,22.88
2023-02-24T07:39:23.706Z,21.10
2023-02-24T07:41:57.324Z,21.75
2023-02-24T07:44:30.504Z,22.42
2023-02-24T07:47:08.150Z,23.42
2023-02-24T07:49:41.285Z,23.58
2023-02-24T07:52:38.933Z,22.17
2023-02-24T07:55:11.887Z,22.15
2023-02-24T07:57:48.678Z,21.98
2023-02-24T08:00:28.455Z,22.27
2023-02-24T08:03:01.763Z,20.90
2023-02-24T08:05:35.006Z,22.17
2023-02-24T08:10:41.273Z,20.85
2023-02-24T08:13:13.822Z,20.92
2023-02-24T08:15:49.537Z,21.55
2023-02-24T08:18:22.251Z,21.92
2023-02-24T08:21:02.256Z,21.83
2023-02-24T08:23:44.876Z,22.00
2023-02-24T08:26:17.746Z,20.10
2023-02-24T08:28:51.887Z,19.65
2023-02-24T08:31:25.309Z,19.23
2023-02-24T08:33:58.193Z,20.38
2023-02-24T08:36:30.850Z,21.45
2023-02-24T08:39:04.124Z,21.42
2023-02-24T08:41:45.344Z,22.30
2023-02-24T08:44:20.574Z,20.67
2023-02-24T08:46:54.573Z,21.20
2023-02-24T08:49:28.584Z,20.42
2023-02-24T08:52:02.625Z,18.75
2023-02-24T08:54:35.557Z,19.35
2023-02-24T08:57:15.523Z,21.75
2023-02-24T08:59:51.274Z,21.85
2023-02-24T09:02:28.567Z,22.73
2023-02-24T09:05:05.222Z,26.08
2023-02-24T09:07:42.410Z,22.80
2023-02-24T09:10:19.880Z,22.95
2023-02-24T09:12:53.866Z,21.73
2023-02-24T09:15:41.625Z,21.60
2023-02-24T09:18:14.633Z,20.58
2023-02-24T09:21:05.678Z,22.35
2023-02-24T09:23:46.283Z,22.02
2023-02-24T09:26:20.974Z,21.60
2023-02-24T09:28:56.309Z,23.00
2023-02-24T09:31:41.195Z,23.40
2023-02-24T09:34:18.916Z,23.15
2023-02-24T09:37:03.366Z,24.58
2023-02-24T09:40:06.691Z,25.75
2023-02-24T09:42:49.199Z,21.58
2023-02-24T09:45:33.675Z,20.90
2023-02-24T09:48:16.793Z,21.80
2023-02-24T09:51:05.279Z,24.23
2023-02-24T09:53:42.694Z,23.38
2023-02-24T09:56:27.672Z,22.65
2023-02-24T09:59:12.228Z,23.27
2023-02-24T10:02:17.206Z,23.92
2023-02-24T10:05:07.444Z,21.05
2023-02-24T10:07:44.218Z,20.98
2023-02-24T10:10:29.847Z,20.70
2023-02-24T10:13:19.912Z,21.73
2023-02-24T10:16:06.893Z,18.83
2023-02-24T10:18:43.516Z,18.52
2023-02-24T10:21:48.489Z,19.27
2023-02-24T10:24:29.663Z,17.63
2023-02-24T10:27:16.773Z,18.30
2023-02-24T10:30:41.888Z,17.20
2023-02-24T10:33:20.866Z,18.65
2023-02-24T10:36:09.483Z,18.55
2023-02-24T10:38:45.752Z,19.45
2023-02-24T10:41:18.898Z,18.20
2023-02-24T10:46:41.417Z,19.40
2023-02-24T10:49:17.029Z,19.63
2023-02-24T10:51:53.708Z,18.38
2023-02-24T10:54:45.307Z,19.83
2023-02-24T10:57:39.486Z,19.63
2023-02-24T11:00:41.003Z,19.30
2023-02-24T11:03:32.750Z,19.00
2023-02-24T11:06:06.107Z,18.50
2023-02-24T11:11:57.099Z,19.85
2023-02-24T11:14:48.354Z,20.48
2023-02-24T11:17:27.442Z,19.75
2023-02-24T11:20:11.177Z,20.80
2023-02-24T11:22:49.442Z,21.23
2023-02-24T11:25:27.454Z,20.33
2023-02-24T11:28:00.027Z,21.48
2023-02-24T11:30:44.765Z,22.20
2023-02-24T11:33:47.699Z,21.65
2023-02-24T11:36:37.154Z,20.23
2023-02-24T11:39:21.631Z,20.85
2023-02-24T11:41:57.719Z,21.70
2023-02-24T11:44:54.094Z,20.20
2023-02-24T11:47:39.042Z,20.85
2023-02-24T11:50:26.228Z,20.38
2023-02-24T11:53:06.388Z,20.55
2023-02-24T11:55:47.193Z,18.23
2023-02-24T11:58:56.449Z,20.58
2023-02-24T12:01:59.451Z,20.80
2023-02-24T12:04:46.656Z,21.67
2023-02-24T12:07:35.720Z,20.83
2023-02-24T12:10:17.875Z,21.00
2023-02-24T12:13:11.382Z,20.83
2023-02-24T12:16:04.947Z,20.23
2023-02-24T12:19:01.124Z,20.38
2023-02-24T12:21:46.586Z,20.58
2023-02-24T12:24:21.578Z,20.10
2023-02-24T12:27:08.298Z,18.65
2023-02-24T12:30:23.289Z,20.60
2023-02-24T12:33:25.167Z,16.95
2023-02-24T12:36:22.542Z,18.85
2023-02-24T12:39:23.764Z,18.02
2023-02-24T12:42:19.655Z,19.90
2023-02-24T12:45:27.099Z,19.02
2023-02-24T12:48:46.902Z,18.17
2023-02-24T12:51:55.700Z,16.33
2023-02-24T12:54:39.651Z,16.73
2023-02-24T12:57:19.434Z,18.05
2023-02-24T12:59:52.933Z,18.02
2023-02-24T13:03:09.604Z,18.02
2023-02-24T13:06:14.987Z,15.82
2023-02-24T13:09:29.565Z,17.70
2023-02-24T13:12:24.130Z,16.10
2023-02-24T13:14:57.200Z,17.40
2023-02-24T13:17:29.841Z,14.75
2023-02-24T13:20:12.304Z,14.93
2023-02-24T13:22:47.308Z,15.47
2023-02-24T13:25:24.009Z,14.88
2023-02-24T13:28:05.163Z,12.63
2023-02-24T13:30:44.740Z,15.40
2023-02-24T13:33:20.168Z,12.43
2023-02-24T13:36:14.665Z,11.20
2023-02-24T13:38:49.733Z,13.05
2023-02-24T13:41:41.171Z,12.88
2023-02-24T13:44:20.198Z,13.40
2023-02-24T13:47:25.240Z,14.48
2023-02-24T13:50:25.548Z,13.30
2023-02-24T13:53:24.142Z,14.20
2023-02-24T13:56:22.309Z,13.27
2023-02-24T13:59:16.678Z,10.50
2023-02-24T14:02:01.866Z,10.13
2023-02-24T14:04:37.048Z,11.32
2023-02-24T14:07:12.711Z,10.50
2023-02-24T14:09:48.806Z,10.65
2023-02-24T14:12:26.032Z,11.73
2023-02-24T14:14:59.701Z,13.27
2023-02-24T14:17:36.324Z,10.55
2023-02-24T14:20:21.657Z,13.18
2023-02-24T14:22:59.164Z,13.02
2023-02-24T14:25:38.776Z,12.38
2023-02-24T14:28:21.646Z,13.25
2023-02-24T14:30:58.604Z,11.93
2023-02-24T14:33:35.474Z,13.80
2023-02-24T14:36:16.856Z,10.43
2023-02-24T14:39:08.376Z,11.52
2023-02-24T14:41:41.034Z,9.93
2023-02-24T14:44:26.553Z,9.70
2023-02-24T14:47:03.066Z,12.70
2023-02-24T14:49:36.519Z,13.13
2023-02-24T14:52:35.726Z,12.85
2023-02-24T14:55:19.493Z,12.07
2023-02-24T14:57:59.500Z,15.52
2023-02-24T15:00:38.838Z,11.45
2023-02-24T15:03:29.773Z,14.20
2023-02-24T15:06:12.186Z,13.60
2023-02-24T15:08:48.785Z,16.45
2023-02-24T15:11:27.219Z,15.02
2023-02-24T15:14:03.684Z,14.35
2023-02-24T15:16:45.610Z,13.43
2023-02-24T15:19:44.302Z,14.30
2023-02-24T15:22:29.520Z,14.60
2023-02-24T15:25:22.358Z,14.10
2023-02-24T15:28:05.439Z,13.73
2023-02-24T15:30:53.827Z,15.05
2023-02-24T15:33:39.771Z,13.88
2023-02-24T15:36:19.161Z,13.43
2023-02-24T15:39:15.999Z,14.18
2023-02-24T15:41:49.959Z,12.60
2023-02-24T15:44:27.670Z,16.23
2023-02-24T15:47:12.238Z,14.23
2023-02-24T15:49:44.781Z,14.75
2023-02-24T15:52:23.828Z,13.90
2023-02-24T15:54:59.616Z,12.82
2023-02-24T15:57:33.144Z,14.00
2023-02-24T16:00:15.218Z,14.38
2023-02-24T16:02:47.829Z,12.90
2023-02-24T16:05:20.563Z,14.60
2023-02-24T16:07:55.232Z,13.10
2023-02-24T16:10:30.286Z,10.93
2023-02-24T16:13:03.236Z,13.23
2023-02-24T16:15:38.143Z,12.00
2023-02-24T16:18:21.610Z,11.27
2023-02-24T16:20:55.583Z,12.82
2023-02-24T16:23:28.269Z,13.82
2023-02-24T16:26:01.010Z,14.35
2023-02-24T16:28:34.008Z,12.77
2023-02-24T16:31:07.678Z,10.35
2023-02-24T16:33:53.568Z,12.60
2023-02-24T16:36:28.750Z,12.68
2023-02-24T16:39:01.626Z,12.45
2023-02-24T16:41:59.303Z,12.40
2023-02-24T16:44:31.914Z,13.45
2023-02-24T16:47:07.611Z,14.07
2023-02-24T16:49:41.345Z,15.25
2023-02-24T16:52:19.373Z,14.60
2023-02-24T16:54:52.037Z,14.48
2023-02-24T16:57:25.954Z,16.50
2023-02-24T16:59:58.926Z,15.27
2023-02-24T17:02:31.699Z,12.40
2023-02-24T17:05:04.427Z,14.23
2023-02-24T17:07:50.303Z,14.85
2023-02-24T17:10:49.374Z,14.07
2023-02-24T17:13:22.755Z,13.45
2023-02-24T17:15:57.605Z,16.02
2023-02-24T17:18:30.283Z,13.50
2023-02-24T17:21:03.649Z,16.17
2023-02-24T17:23:36.360Z,14.98
2023-02-24T17:26:13.507Z,14.27
2023-02-24T17:28:46.157Z,13.25
2023-02-24T17:31:19.167Z,13.35
2023-02-24T17:33:54.194Z,13.50
2023-02-24T17:36:26.846Z,13.73
2023-02-24T17:38:59.720Z,14.50
2023-02-24T17:41:32.425Z,15.25
2023-02-24T17:44:04.964Z,13.52
2023-02-24T17:46:37.790Z,15.88
2023-02-24T17:49:10.401Z,13.88
2023-02-24T17:51:42.996Z,14.20
2023-02-24T17:54:15.587Z,14.07
2023-02-24T17:56:48.234Z,13.05
2023-02-24T17:59:20.866Z,14.55
2023-02-24T18:01:54.244Z,12.82
2023-02-24T18:04:26.948Z,14.93
2023-02-24T18:06:59.506Z,15.85
2023-02-24T18:09:32.136Z,15.98
2023-02-24T18:12:05.445Z,17.48
2023-02-24T18:17:10.731Z,16.75
2023-02-24T18:19:43.394Z,17.33
2023-02-24T18:22:15.974Z,17.05
2023-02-24T18:24:48.727Z,17.40
2023-02-24T18:27:22.533Z,16.67
2023-02-24T18:29:55.495Z,18.35
2023-02-24T18:32:28.321Z,18.17
2023-02-24T18:35:01.157Z,18.88
2023-02-24T18:37:34.179Z,17.92
2023-02-24T18:40:07.480Z,18.55
2023-02-24T18:45:13.276Z,18.83
2023-02-24T18:47:47.949Z,18.58
2023-02-24T18:52:57.896Z,17.98
2023-02-24T18:55:30.507Z,18.52
2023-02-24T18:58:03.120Z,18.75
2023-02-24T19:00:35.701Z,19.85
2023-02-24T19:03:08.647Z,18.30
2023-02-24T19:05:41.332Z,19.23
2023-02-24T19:08:13.983Z,18.77
2023-02-24T19:10:46.623Z,19.90
2023-02-24T19:13:19.185Z,18.55
2023-02-24T19:15:52.056Z,20.65
2023-02-24T19:18:24.685Z,19.20
2023-02-24T19:20:57.469Z,20.88
2023-02-24T19:23:30.160Z,20.70
2023-02-24T19:26:02.774Z,21.60
2023-02-24T19:28:35.387Z,21.52
2023-02-24T19:31:14.664Z,21.23
2023-02-24T19:33:55.912Z,19.90
2023-02-24T19:36:29.655Z,18.95
2023-02-24T19:39:02.495Z,21.45
2023-02-24T19:41:35.115Z,20.92
2023-02-24T19:44:08.020Z,19.60
2023-02-24T19:46:40.797Z,18.77
2023-02-24T19:49:13.504Z,19.48
2023-02-24T19:51:48.220Z,18.77
2023-02-24T19:54:24.865Z,20.50
2023-02-24T19:57:10.413Z,21.15
2023-02-24T19:59:46.709Z,21.50
2023-02-24T20:02:19.600Z,22.45
2023-02-24T20:04:52.509Z,22.15
2023-02-24T20:07:25.229Z,21.77
2023-02-24T20:09:57.784Z,22.23
2023-02-24T20:12:30.424Z,20.67
2023-02-24T20:15:03.515Z,21.73
2023-02-24T20:17:36.288Z,24.17
2023-02-24T20:20:09.611Z,23.25
2023-02-24T20:22:43.128Z,22.05
2023-02-24T20:25:15.719Z,24.75
2023-02-24T20:27:48.304Z,23.52
2023-02-24T20:30:20.822Z,23.90
2023-02-24T20:32:54.110Z,23.30
2023-02-24T20:35:28.614Z,23.95
2023-02-24T20:38:01.592Z,24.67
2023-02-24T20:40:34.656Z,22.15
2023-02-24T20:46:39.202Z,24.00
2023-02-24T20:49:22.806Z,25.92
2023-02-24T20:54:28.000Z,25.83
2023-02-24T20:57:00.599Z,27.98
2023-02-24T20:59:33.222Z,27.35
2023-02-24T21:02:05.838Z,28.05
2023-02-24T21:04:39.462Z,29.35
2023-02-24T21:07:12.134Z,28.27
2023-02-24T21:09:44.782Z,29.05
2023-02-24T21:12:17.507Z,28.17
2023-02-24T21:14:50.440Z,27.05
2023-02-24T21:17:30.625Z,27.33
2023-02-24T21:20:03.571Z,27.23
2023-02-24T21:22:36.220Z,27.15
2023-02-24T21:25:12.857Z,26.33
2023-02-24T21:27:45.622Z,26.25
2023-02-24T21:30:18.394Z,26.23
2023-02-24T21:32:51.335Z,25.55
2023-02-24T21:35:25.304Z,26.08
2023-02-24T21:38:01.003Z,25.05
2023-02-24T21:40:33.972Z,24.95
2023-02-24T21:43:06.661Z,23.25
2023-02-24T21:45:40.635Z,26.73
2023-02-24T21:48:13.258Z,25.08
2023-02-24T21:50:46.058Z,25.48
2023-02-24T21:53:18.801Z,24.38
2023-02-24T21:56:01.831Z,23.48
2023-02-24T21:58:34.406Z,24.10
2023-02-24T22:01:18.590Z,25.85
2023-02-24T22:03:57.195Z,23.60
2023-02-24T22:06:32.111Z,23.73
2023-02-24T22:09:06.657Z,25.02
2023-02-24T22:13:08.000Z,24.67
2023-02-24T22:15:18.051Z,23.73
2023-02-24T22:17:50.673Z,24.00
2023-02-24T22:20:23.227Z,24.92
2023-02-24T22:22:55.837Z,24.83
2023-02-24T22:25:28.498Z,24.92
2023-02-24T22:28:01.170Z,26.60
2023-02-24T22:30:34.093Z,25.77
2023-02-24T22:33:06.734Z,24.42
2023-02-24T22:35:39.411Z,24.98
2023-02-24T22:38:12.072Z,24.23
2023-02-24T22:40:44.719Z,23.95
2023-02-24T22:43:17.364Z,25.48
2023-02-24T22:45:58.153Z,24.55
2023-02-24T22:48:32.366Z,22.75
2023-02-24T22:51:07.125Z,24.52
2023-02-24T22:53:43.389Z,22.92
2023-02-24T22:56:19.365Z,24.08
2023-02-24T22:58:52.469Z,23.55
2023-02-24T23:01:31.259Z,23.98
2023-02-24T23:04:09.391Z,24.63
2023-02-24T23:06:42.340Z,24.63
2023-02-24T23:09:20.003Z,24.42
2023-02-24T23:11:52.795Z,22.70
2023-02-24T23:14:25.439Z,23.25
2023-02-24T23:16:59.089Z,23.67
2023-02-24T23:19:31.653Z,23.67
2023-02-24T23:22:05.094Z,22.75
2023-02-24T23:24:37.732Z,23.77
2023-02-24T23:27:10.576Z,24.20
2023-02-24T23:29:43.195Z,24.58
2023-02-24T23:32:16.354Z,23.60
2023-02-24T23:37:21.691Z,22.58
2023-02-24T23:39:54.759Z,23.55
2023-02-24T23:42:27.414Z,22.90
2023-02-24T23:45:00.134Z,24.30
2023-02-24T23:47:32.837Z,23.20
2023-02-24T23:50:06.067Z,23.02
2023-02-24T23:52:38.709Z,23.45
2023-02-24T23:55:12.074Z,22.08
2023-02-24T23:57:44.643Z,23.02
